sensor_id;sensor_type;location;lat;lon;timestamp;pressure;altitude;pressure_sealevel;temperature;humidity
42725;BME280;28369;44.046;23.014;2023-02-28T00:00:24;102013.28;;;11.75;54.87
42725;BME280;28369;44.046;23.014;2023-02-28T00:02:50;102029.22;;;11.86;55.18
42725;BME280;28369;44.046;23.014;2023-02-28T00:05:19;101747.66;;;10.11;55.29
42725;BME280;28369;44.046;23.014;2023-02-28T00:07:45;102038.50;;;11.92;55.54
42725;BME280;28369;44.046;23.014;2023-02-28T00:10:13;102023.38;;;11.68;55.26
42725;BME280;28369;44.046;23.014;2023-02-28T00:12:39;102073.03;;;12.02;55.02
42725;BME280;28369;44.046;23.014;2023-02-28T00:15:06;102051.66;;;11.79;54.97
42725;BME280;28369;44.046;23.014;2023-02-28T00:17:32;102069.13;;;12.07;54.71
42725;BME280;28369;44.046;23.014;2023-02-28T00:19:57;101983.97;;;11.27;55.75
42725;BME280;28369;44.046;23.014;2023-02-28T00:22:35;101893.06;;;9.97;58.26
42725;BME280;28369;44.046;23.014;2023-02-28T00:25:01;102028.69;;;10.72;58.56
42725;BME280;28369;44.046;23.014;2023-02-28T00:27:26;101958.72;;;10.12;58.99
42725;BME280;28369;44.046;23.014;2023-02-28T00:29:52;102060.78;;;10.77;59.37
42725;BME280;28369;44.046;23.014;2023-02-28T00:32:19;102070.38;;;10.78;59.93
42725;BME280;28369;44.046;23.014;2023-02-28T00:34:45;102077.66;;;11.16;59.21
42725;BME280;28369;44.046;23.014;2023-02-28T00:37:10;102068.84;;;11.03;59.13
42725;BME280;28369;44.046;23.014;2023-02-28T00:39:38;101901.75;;;10.12;58.47
42725;BME280;28369;44.046;23.014;2023-02-28T00:42:04;102057.66;;;10.99;58.30
42725;BME280;28369;44.046;23.014;2023-02-28T00:44:30;102096.25;;;11.55;57.59
42725;BME280;28369;44.046;23.014;2023-02-28T00:46:56;102064.31;;;11.47;57.71
42725;BME280;28369;44.046;23.014;2023-02-28T00:49:22;102056.66;;;11.56;57.32
42725;BME280;28369;44.046;23.014;2023-02-28T00:51:48;101990.69;;;11.18;56.93
42725;BME280;28369;44.046;23.014;2023-02-28T00:54:14;102050.19;;;11.48;57.18
42725;BME280;28369;44.046;23.014;2023-02-28T00:56:39;102064.41;;;11.45;57.17
42725;BME280;28369;44.046;23.014;2023-02-28T00:59:05;102106.84;;;11.68;57.41
42725;BME280;28369;44.046;23.014;2023-02-28T01:01:31;102072.16;;;11.34;57.78
42725;BME280;28369;44.046;23.014;2023-02-28T01:03:57;102124.00;;;11.19;59.44
42725;BME280;28369;44.046;23.014;2023-02-28T01:06:22;101998.44;;;10.65;59.44
42725;BME280;28369;44.046;23.014;2023-02-28T01:08:48;101912.66;;;10.35;58.81
42725;BME280;28369;44.046;23.014;2023-02-28T01:11:16;102082.63;;;11.48;58.38
42725;BME280;28369;44.046;23.014;2023-02-28T01:13:43;102052.38;;;11.41;58.04
42725;BME280;28369;44.046;23.014;2023-02-28T01:16:09;102057.66;;;11.41;57.95
42725;BME280;28369;44.046;23.014;2023-02-28T01:18:35;101841.47;;;10.24;58.03
42725;BME280;28369;44.046;23.014;2023-02-28T01:21:13;102099.47;;;11.04;60.42
42725;BME280;28369;44.046;23.014;2023-02-28T01:23:39;102040.41;;;10.23;62.04
42725;BME280;28369;44.046;23.014;2023-02-28T01:26:11;101912.06;;;9.58;62.21
42725;BME280;28369;44.046;23.014;2023-02-28T01:28:37;102090.75;;;10.46;62.59
42725;BME280;28369;44.046;23.014;2023-02-28T01:31:03;102060.03;;;10.32;62.88
42725;BME280;28369;44.046;23.014;2023-02-28T01:33:29;102063.59;;;10.31;62.57
42725;BME280;28369;44.046;23.014;2023-02-28T01:36:06;102085.50;;;10.46;62.17
42725;BME280;28369;44.046;23.014;2023-02-28T01:38:33;101968.44;;;9.66;62.50
42725;BME280;28369;44.046;23.014;2023-02-28T01:40:58;102095.28;;;10.44;62.16
42725;BME280;28369;44.046;23.014;2023-02-28T01:43:29;102037.25;;;10.02;61.87
42725;BME280;28369;44.046;23.014;2023-02-28T01:45:56;102062.94;;;9.97;62.09
42725;BME280;28369;44.046;23.014;2023-02-28T01:48:26;102039.50;;;9.94;61.52
42725;BME280;28369;44.046;23.014;2023-02-28T01:50:54;102062.44;;;10.20;61.72
42725;BME280;28369;44.046;23.014;2023-02-28T01:53:26;102068.69;;;10.63;61.15
42725;BME280;28369;44.046;23.014;2023-02-28T01:55:54;102069.34;;;10.66;60.27
42725;BME280;28369;44.046;23.014;2023-02-28T01:58:20;102098.09;;;10.84;60.35
42725;BME280;28369;44.046;23.014;2023-02-28T02:00:45;102115.28;;;11.04;60.03
42725;BME280;28369;44.046;23.014;2023-02-28T02:03:16;101871.78;;;9.43;60.70
42725;BME280;28369;44.046;23.014;2023-02-28T02:05:45;102114.16;;;10.94;61.03
42725;BME280;28369;44.046;23.014;2023-02-28T02:08:21;102104.97;;;10.86;60.89
42725;BME280;28369;44.046;23.014;2023-02-28T02:11:00;102117.72;;;10.93;61.40
42725;BME280;28369;44.046;23.014;2023-02-28T02:16:20;102135.38;;;11.19;60.56
42725;BME280;28369;44.046;23.014;2023-02-28T02:19:33;102136.63;;;10.99;60.90
42725;BME280;28369;44.046;23.014;2023-02-28T02:35:54;102104.69;;;11.33;60.85
42725;BME280;28369;44.046;23.014;2023-02-28T02:41:18;101949.06;;;9.98;61.54
42725;BME280;28369;44.046;23.014;2023-02-28T02:43:49;102091.34;;;10.65;61.69
42725;BME280;28369;44.046;23.014;2023-02-28T02:46:20;102099.69;;;10.72;62.54
42725;BME280;28369;44.046;23.014;2023-02-28T02:48:46;102067.91;;;10.32;63.21
42725;BME280;28369;44.046;23.014;2023-02-28T02:51:18;102069.34;;;10.37;63.10
42725;BME280;28369;44.046;23.014;2023-02-28T02:53:57;102102.88;;;10.77;63.01
42725;BME280;28369;44.046;23.014;2023-02-28T02:56:28;102070.44;;;10.33;63.82
42725;BME280;28369;44.046;23.014;2023-02-28T02:59:01;101922.16;;;9.19;64.33
42725;BME280;28369;44.046;23.014;2023-02-28T03:01:28;102117.00;;;10.31;65.22
42725;BME280;28369;44.046;23.014;2023-02-28T03:04:07;102102.72;;;10.21;65.62
42725;BME280;28369;44.046;23.014;2023-02-28T03:06:33;101956.50;;;9.30;65.41
42725;BME280;28369;44.046;23.014;2023-02-28T03:08:59;102073.81;;;9.91;66.81
42725;BME280;28369;44.046;23.014;2023-02-28T03:11:25;101867.31;;;8.84;66.17
42725;BME280;28369;44.046;23.014;2023-02-28T03:17:05;102118.22;;;10.85;64.15
42725;BME280;28369;44.046;23.014;2023-02-28T03:28:40;102138.88;;;10.62;64.98
42725;BME280;28369;44.046;23.014;2023-02-28T03:31:36;102043.25;;;10.04;64.42
42725;BME280;28369;44.046;23.014;2023-02-28T03:34:22;102015.13;;;10.20;63.89
42725;BME280;28369;44.046;23.014;2023-02-28T03:36:53;102108.69;;;10.39;64.77
42725;BME280;28369;44.046;23.014;2023-02-28T03:39:23;102096.13;;;9.83;65.86
42725;BME280;28369;44.046;23.014;2023-02-28T03:41:58;102108.50;;;9.81;67.23
42725;BME280;28369;44.046;23.014;2023-02-28T03:44:30;102099.16;;;10.22;65.97
42725;BME280;28369;44.046;23.014;2023-02-28T03:47:08;102196.19;;;10.41;66.42
42725;BME280;28369;44.046;23.014;2023-02-28T03:49:41;102109.63;;;10.08;66.26
42725;BME280;28369;44.046;23.014;2023-02-28T03:52:09;102049.81;;;9.97;65.97
42725;BME280;28369;44.046;23.014;2023-02-28T03:54:41;102165.47;;;11.01;65.05
42725;BME280;28369;44.046;23.014;2023-02-28T03:57:20;102116.03;;;10.77;63.95
42725;BME280;28369;44.046;23.014;2023-02-28T04:00:00;102126.75;;;10.88;64.24
42725;BME280;28369;44.046;23.014;2023-02-28T04:02:29;102049.44;;;10.03;64.90
42725;BME280;28369;44.046;23.014;2023-02-28T04:04:55;101998.00;;;9.84;64.95
42725;BME280;28369;44.046;23.014;2023-02-28T04:07:20;102112.09;;;10.25;66.76
42725;BME280;28369;44.046;23.014;2023-02-28T04:09:46;101958.03;;;9.19;67.15
42725;BME280;28369;44.046;23.014;2023-02-28T04:12:11;102156.78;;;10.55;66.47
42725;BME280;28369;44.046;23.014;2023-02-28T04:14:37;102126.34;;;10.51;66.53
42725;BME280;28369;44.046;23.014;2023-02-28T04:17:02;102132.88;;;10.89;65.87
42725;BME280;28369;44.046;23.014;2023-02-28T04:19:28;102177.72;;;11.58;65.11
42725;BME280;28369;44.046;23.014;2023-02-28T04:21:53;102173.75;;;11.65;64.96
42725;BME280;28369;44.046;23.014;2023-02-28T04:24:24;102165.09;;;11.49;65.77
42725;BME280;28369;44.046;23.014;2023-02-28T04:26:53;102194.88;;;11.78;65.44
42725;BME280;28369;44.046;23.014;2023-02-28T04:29:22;102189.44;;;11.67;65.27
42725;BME280;28369;44.046;23.014;2023-02-28T04:31:48;102192.53;;;11.73;65.06
42725;BME280;28369;44.046;23.014;2023-02-28T04:34:13;102156.28;;;11.77;64.63
42725;BME280;28369;44.046;23.014;2023-02-28T04:36:39;102171.47;;;11.73;64.85
42725;BME280;28369;44.046;23.014;2023-02-28T04:39:05;102211.84;;;12.01;64.34
42725;BME280;28369;44.046;23.014;2023-02-28T04:41:30;102131.50;;;11.25;65.20
42725;BME280;28369;44.046;23.014;2023-02-28T04:43:56;102181.66;;;11.65;65.56
42725;BME280;28369;44.046;23.014;2023-02-28T04:46:22;102162.38;;;11.65;65.70
42725;BME280;28369;44.046;23.014;2023-02-28T04:48:48;102159.78;;;11.50;65.62
42725;BME280;28369;44.046;23.014;2023-02-28T04:51:15;101978.25;;;10.65;65.25
42725;BME280;28369;44.046;23.014;2023-02-28T04:53:42;101959.38;;;10.30;65.66
42725;BME280;28369;44.046;23.014;2023-02-28T04:56:11;101982.38;;;10.55;65.45
42725;BME280;28369;44.046;23.014;2023-02-28T04:58:37;102145.31;;;11.29;66.16
42725;BME280;28369;44.046;23.014;2023-02-28T05:01:30;102173.53;;;11.27;67.42
42725;BME280;28369;44.046;23.014;2023-02-28T05:03:58;102176.53;;;10.92;68.32
42725;BME280;28369;44.046;23.014;2023-02-28T05:06:26;102199.78;;;10.99;69.06
42725;BME280;28369;44.046;23.014;2023-02-28T05:08:52;102171.75;;;10.84;68.80
42725;BME280;28369;44.046;23.014;2023-02-28T05:11:36;102180.22;;;10.89;68.85
42725;BME280;28369;44.046;23.014;2023-02-28T05:14:06;102136.53;;;10.72;68.84
42725;BME280;28369;44.046;23.014;2023-02-28T05:16:34;102205.94;;;11.41;68.24
42725;BME280;28369;44.046;23.014;2023-02-28T05:18:59;102061.44;;;10.23;68.99
42725;BME280;28369;44.046;23.014;2023-02-28T05:21:34;102092.25;;;10.35;68.97
42725;BME280;28369;44.046;23.014;2023-02-28T05:24:03;102169.50;;;10.92;68.85
42725;BME280;28369;44.046;23.014;2023-02-28T05:26:29;102083.78;;;10.30;68.73
42725;BME280;28369;44.046;23.014;2023-02-28T05:28:55;102172.22;;;10.62;69.03
42725;BME280;28369;44.046;23.014;2023-02-28T05:31:21;102142.91;;;10.53;69.04
42725;BME280;28369;44.046;23.014;2023-02-28T05:33:47;102201.69;;;10.67;69.73
42725;BME280;28369;44.046;23.014;2023-02-28T05:36:12;102230.03;;;11.06;68.70
42725;BME280;28369;44.046;23.014;2023-02-28T05:38:38;102237.00;;;11.07;68.57
42725;BME280;28369;44.046;23.014;2023-02-28T05:41:10;102156.91;;;10.68;68.43
42725;BME280;28369;44.046;23.014;2023-02-28T05:43:37;102052.50;;;9.81;68.82
42725;BME280;28369;44.046;23.014;2023-02-28T05:46:07;102204.53;;;10.64;69.62
42725;BME280;28369;44.046;23.014;2023-02-28T05:48:35;102210.28;;;10.85;69.24
42725;BME280;28369;44.046;23.014;2023-02-28T05:51:01;102214.84;;;10.67;69.93
42725;BME280;28369;44.046;23.014;2023-02-28T05:53:27;102138.47;;;10.24;69.35
42725;BME280;28369;44.046;23.014;2023-02-28T05:55:53;102227.56;;;10.75;70.20
42725;BME280;28369;44.046;23.014;2023-02-28T05:58:19;102231.94;;;10.60;70.33
42725;BME280;28369;44.046;23.014;2023-02-28T06:00:44;102267.97;;;10.74;70.81
42725;BME280;28369;44.046;23.014;2023-02-28T06:03:10;102142.63;;;10.28;70.24
42725;BME280;28369;44.046;23.014;2023-02-28T06:05:36;102220.59;;;10.74;69.86
42725;BME280;28369;44.046;23.014;2023-02-28T06:08:01;102164.31;;;10.31;69.67
42725;BME280;28369;44.046;23.014;2023-02-28T06:10:27;102234.28;;;10.64;69.65
42725;BME280;28369;44.046;23.014;2023-02-28T06:12:52;102268.78;;;10.74;70.10
42725;BME280;28369;44.046;23.014;2023-02-28T06:15:18;102236.09;;;10.17;70.87
42725;BME280;28369;44.046;23.014;2023-02-28T06:17:44;102241.56;;;10.29;71.32
42725;BME280;28369;44.046;23.014;2023-02-28T06:20:10;102241.56;;;10.45;70.16
42725;BME280;28369;44.046;23.014;2023-02-28T06:22:38;102114.31;;;9.40;71.01
42725;BME280;28369;44.046;23.014;2023-02-28T06:25:05;102221.34;;;10.15;70.83
42725;BME280;28369;44.046;23.014;2023-02-28T06:27:32;102063.59;;;9.40;70.16
42725;BME280;28369;44.046;23.014;2023-02-28T06:29:57;102094.47;;;9.66;70.02
42725;BME280;28369;44.046;23.014;2023-02-28T06:32:23;102212.63;;;10.29;70.16
42725;BME280;28369;44.046;23.014;2023-02-28T06:34:48;102112.91;;;10.11;68.25
42725;BME280;28369;44.046;23.014;2023-02-28T06:37:15;102264.63;;;11.00;68.75
42725;BME280;28369;44.046;23.014;2023-02-28T06:39:41;102219.94;;;10.70;68.79
42725;BME280;28369;44.046;23.014;2023-02-28T06:42:06;102220.97;;;10.67;68.56
42725;BME280;28369;44.046;23.014;2023-02-28T06:44:32;102218.16;;;10.70;68.35
42725;BME280;28369;44.046;23.014;2023-02-28T06:47:05;102102.00;;;10.03;68.36
42725;BME280;28369;44.046;23.014;2023-02-28T06:49:31;102250.13;;;10.32;70.14
42725;BME280;28369;44.046;23.014;2023-02-28T06:51:57;102212.34;;;10.03;71.25
42725;BME280;28369;44.046;23.014;2023-02-28T06:54:23;102269.19;;;10.82;69.50
42725;BME280;28369;44.046;23.014;2023-02-28T06:56:48;102220.44;;;10.46;69.58
42725;BME280;28369;44.046;23.014;2023-02-28T06:59:14;102016.88;;;8.82;70.98
42725;BME280;28369;44.046;23.014;2023-02-28T07:01:40;102286.56;;;10.70;70.61
42725;BME280;28369;44.046;23.014;2023-02-28T07:04:06;102217.63;;;10.49;69.45
42725;BME280;28369;44.046;23.014;2023-02-28T07:06:32;102119.72;;;9.99;69.23
42725;BME280;28369;44.046;23.014;2023-02-28T07:08:58;102302.81;;;10.77;69.77
42725;BME280;28369;44.046;23.014;2023-02-28T07:11:25;102091.00;;;9.66;69.40
42725;BME280;28369;44.046;23.014;2023-02-28T07:13:55;102314.13;;;10.94;70.15
42725;BME280;28369;44.046;23.014;2023-02-28T07:16:21;102259.06;;;10.91;69.62
42725;BME280;28369;44.046;23.014;2023-02-28T07:18:47;102264.16;;;11.08;68.88
42725;BME280;28369;44.046;23.014;2023-02-28T07:21:13;102305.16;;;11.27;69.07
42725;BME280;28369;44.046;23.014;2023-02-28T07:23:39;102190.97;;;10.55;68.93
42725;BME280;28369;44.046;23.014;2023-02-28T07:26:16;102130.28;;;10.44;68.43
42725;BME280;28369;44.046;23.014;2023-02-28T07:28:42;102296.25;;;11.29;68.22
42725;BME280;28369;44.046;23.014;2023-02-28T07:31:09;102290.13;;;11.29;68.18
42725;BME280;28369;44.046;23.014;2023-02-28T07:33:35;102330.28;;;11.18;68.67
42725;BME280;28369;44.046;23.014;2023-02-28T07:36:06;102319.16;;;11.13;69.28
42725;BME280;28369;44.046;23.014;2023-02-28T07:38:36;102288.94;;;10.89;69.62
42725;BME280;28369;44.046;23.014;2023-02-28T07:41:03;102171.25;;;10.48;68.71
42725;BME280;28369;44.046;23.014;2023-02-28T07:43:32;102132.72;;;10.17;69.18
42725;BME280;28369;44.046;23.014;2023-02-28T07:46:06;102165.25;;;10.61;68.52
42725;BME280;28369;44.046;23.014;2023-02-28T07:48:32;102300.28;;;11.06;69.66
42725;BME280;28369;44.046;23.014;2023-02-28T07:50:58;102070.56;;;9.71;69.50
42725;BME280;28369;44.046;23.014;2023-02-28T07:53:24;102057.69;;;9.36;69.46
42725;BME280;28369;44.046;23.014;2023-02-28T07:55:50;102020.28;;;9.01;70.39
42725;BME280;28369;44.046;23.014;2023-02-28T07:58:16;102146.78;;;9.85;70.22
42725;BME280;28369;44.046;23.014;2023-02-28T08:00:41;102159.25;;;9.98;70.21
42725;BME280;28369;44.046;23.014;2023-02-28T08:03:12;102197.38;;;10.05;70.48
42725;BME280;28369;44.046;23.014;2023-02-28T08:05:41;102118.31;;;9.47;70.81
42725;BME280;28369;44.046;23.014;2023-02-28T08:08:07;102278.28;;;10.77;69.95
42725;BME280;28369;44.046;23.014;2023-02-28T08:10:33;102277.63;;;10.73;69.39
42725;BME280;28369;44.046;23.014;2023-02-28T08:12:59;102224.28;;;10.25;69.95
42725;BME280;28369;44.046;23.014;2023-02-28T08:15:25;102255.09;;;10.69;69.03
42725;BME280;28369;44.046;23.014;2023-02-28T08:17:50;102106.69;;;9.67;69.89
42725;BME280;28369;44.046;23.014;2023-02-28T08:20:16;102343.44;;;11.32;69.28
42725;BME280;28369;44.046;23.014;2023-02-28T08:22:41;102195.69;;;10.50;69.53
42725;BME280;28369;44.046;23.014;2023-02-28T08:25:07;102286.81;;;10.66;70.79
42725;BME280;28369;44.046;23.014;2023-02-28T08:27:34;102130.19;;;9.85;69.31
42725;BME280;28369;44.046;23.014;2023-02-28T08:29:59;102217.19;;;10.57;68.43
42725;BME280;28369;44.046;23.014;2023-02-28T08:32:24;102284.84;;;11.29;67.59
42725;BME280;28369;44.046;23.014;2023-02-28T08:34:50;102252.09;;;10.75;68.59
42725;BME280;28369;44.046;23.014;2023-02-28T08:37:16;102332.13;;;11.16;68.97
42725;BME280;28369;44.046;23.014;2023-02-28T08:39:41;102111.81;;;9.85;69.06
42725;BME280;28369;44.046;23.014;2023-02-28T08:42:07;102359.84;;;11.37;68.76
42725;BME280;28369;44.046;23.014;2023-02-28T08:44:32;102215.19;;;10.46;68.95
42725;BME280;28369;44.046;23.014;2023-02-28T08:46:58;102168.59;;;10.18;68.87
42725;BME280;28369;44.046;23.014;2023-02-28T08:49:23;102351.44;;;11.31;69.35
42725;BME280;28369;44.046;23.014;2023-02-28T08:51:49;102204.50;;;10.49;68.83
42725;BME280;28369;44.046;23.014;2023-02-28T08:54:14;102155.34;;;9.89;69.70
42725;BME280;28369;44.046;23.014;2023-02-28T08:56:45;102278.13;;;10.33;70.56
42725;BME280;28369;44.046;23.014;2023-02-28T08:59:11;102180.94;;;9.85;71.04
42725;BME280;28369;44.046;23.014;2023-02-28T09:01:37;102302.19;;;10.88;70.19
42725;BME280;28369;44.046;23.014;2023-02-28T09:04:02;102232.66;;;10.31;70.70
42725;BME280;28369;44.046;23.014;2023-02-28T09:06:28;102318.97;;;10.71;71.20
42725;BME280;28369;44.046;23.014;2023-02-28T09:08:56;102229.50;;;10.10;72.27
42725;BME280;28369;44.046;23.014;2023-02-28T09:11:23;102265.75;;;10.96;70.23
42725;BME280;28369;44.046;23.014;2023-02-28T09:13:49;102339.78;;;11.35;70.10
42725;BME280;28369;44.046;23.014;2023-02-28T09:16:15;102294.94;;;10.92;69.86
42725;BME280;28369;44.046;23.014;2023-02-28T09:18:41;102320.44;;;10.91;69.96
42725;BME280;28369;44.046;23.014;2023-02-28T09:21:13;102320.03;;;11.28;69.13
42725;BME280;28369;44.046;23.014;2023-02-28T09:23:43;102288.97;;;11.04;69.30
42725;BME280;28369;44.046;23.014;2023-02-28T09:26:20;102194.03;;;10.17;69.14
42725;BME280;28369;44.046;23.014;2023-02-28T09:28:46;102279.91;;;10.79;69.34
42725;BME280;28369;44.046;23.014;2023-02-28T09:31:18;102319.56;;;10.76;69.41
42725;BME280;28369;44.046;23.014;2023-02-28T09:33:48;102307.97;;;10.79;69.22
42725;BME280;28369;44.046;23.014;2023-02-28T09:36:14;102298.03;;;10.84;68.48
42725;BME280;28369;44.046;23.014;2023-02-28T09:38:40;102127.00;;;9.64;69.26
42725;BME280;28369;44.046;23.014;2023-02-28T09:41:22;102357.81;;;11.12;69.43
42725;BME280;28369;44.046;23.014;2023-02-28T09:43:55;102318.09;;;11.01;68.83
42725;BME280;28369;44.046;23.014;2023-02-28T09:46:38;102320.28;;;11.23;68.81
42725;BME280;28369;44.046;23.014;2023-02-28T09:49:14;102311.94;;;10.86;68.70
42725;BME280;28369;44.046;23.014;2023-02-28T09:51:56;102294.56;;;10.53;69.47
42725;BME280;28369;44.046;23.014;2023-02-28T09:54:26;102317.19;;;11.02;68.84
42725;BME280;28369;44.046;23.014;2023-02-28T09:59:51;102351.53;;;10.68;69.20
42725;BME280;28369;44.046;23.014;2023-02-28T10:05:04;102359.75;;;10.78;69.55
42725;BME280;28369;44.046;23.014;2023-02-28T10:10:03;102320.38;;;11.07;67.60
42725;BME280;28369;44.046;23.014;2023-02-28T10:12:31;102264.22;;;10.78;66.46
42725;BME280;28369;44.046;23.014;2023-02-28T10:14:59;102134.75;;;9.97;65.98
42725;BME280;28369;44.046;23.014;2023-02-28T10:17:38;102312.16;;;10.97;66.24
42725;BME280;28369;44.046;23.014;2023-02-28T10:20:12;102067.72;;;9.90;64.61
42725;BME280;28369;44.046;23.014;2023-02-28T10:23:16;102359.88;;;11.21;66.44
42725;BME280;28369;44.046;23.014;2023-02-28T10:25:47;102293.81;;;10.81;66.45
42725;BME280;28369;44.046;23.014;2023-02-28T10:28:16;102346.00;;;11.63;65.57
42725;BME280;28369;44.046;23.014;2023-02-28T10:30:49;102225.63;;;11.21;64.48
42725;BME280;28369;44.046;23.014;2023-02-28T10:33:19;102368.03;;;11.90;64.25
42725;BME280;28369;44.046;23.014;2023-02-28T10:35:46;102342.16;;;11.68;64.63
42725;BME280;28369;44.046;23.014;2023-02-28T10:38:18;102205.22;;;10.96;64.38
42725;BME280;28369;44.046;23.014;2023-02-28T10:40:44;102231.84;;;11.20;63.76
42725;BME280;28369;44.046;23.014;2023-02-28T10:45:39;102284.69;;;11.32;65.04
42725;BME280;28369;44.046;23.014;2023-02-28T10:55:23;102264.78;;;10.97;67.04
42725;BME280;28369;44.046;23.014;2023-02-28T10:57:50;102348.09;;;11.57;67.39
42725;BME280;28369;44.046;23.014;2023-02-28T11:00:23;102284.41;;;11.22;67.31
42725;BME280;28369;44.046;23.014;2023-02-28T11:02:50;102202.28;;;10.72;67.40
42725;BME280;28369;44.046;23.014;2023-02-28T11:05:25;102315.16;;;11.50;67.08
42725;BME280;28369;44.046;23.014;2023-02-28T11:07:56;102161.03;;;10.72;67.22
42725;BME280;28369;44.046;23.014;2023-02-28T11:10:26;102168.81;;;10.60;67.84
42725;BME280;28369;44.046;23.014;2023-02-28T11:12:57;102165.56;;;10.70;67.59
42725;BME280;28369;44.046;23.014;2023-02-28T11:15:28;102294.81;;;11.67;67.61
42725;BME280;28369;44.046;23.014;2023-02-28T11:18:06;102300.75;;;11.56;67.73
42725;BME280;28369;44.046;23.014;2023-02-28T11:20:40;102305.19;;;11.55;68.26
42725;BME280;28369;44.046;23.014;2023-02-28T11:23:12;102305.63;;;11.76;67.48
42725;BME280;28369;44.046;23.014;2023-02-28T11:25:38;102077.78;;;10.43;67.88
42725;BME280;28369;44.046;23.014;2023-02-28T11:28:06;102265.38;;;11.60;68.70
42725;BME280;28369;44.046;23.014;2023-02-28T11:33:46;102195.63;;;11.10;68.46
42725;BME280;28369;44.046;23.014;2023-02-28T11:36:30;102204.53;;;11.36;68.00
42725;BME280;28369;44.046;23.014;2023-02-28T11:39:00;102292.53;;;11.89;67.52
42725;BME280;28369;44.046;23.014;2023-02-28T11:46:58;102244.31;;;11.31;68.30
42725;BME280;28369;44.046;23.014;2023-02-28T11:49:56;102307.44;;;11.76;68.28
42725;BME280;28369;44.046;23.014;2023-02-28T12:21:01;102309.78;;;11.66;69.29
42725;BME280;28369;44.046;23.014;2023-02-28T12:24:07;102295.22;;;11.46;69.92
42725;BME280;28369;44.046;23.014;2023-02-28T12:26:46;102277.84;;;11.85;68.32
42725;BME280;28369;44.046;23.014;2023-02-28T12:31:49;102330.00;;;12.09;68.15
42725;BME280;28369;44.046;23.014;2023-02-28T12:34:22;102087.56;;;10.41;68.65
42725;BME280;28369;44.046;23.014;2023-02-28T12:36:51;102311.91;;;11.88;68.86
42725;BME280;28369;44.046;23.014;2023-02-28T12:39:25;102082.66;;;11.06;66.84
42725;BME280;28369;44.046;23.014;2023-02-28T12:41:56;102186.94;;;11.51;66.76
42725;BME280;28369;44.046;23.014;2023-02-28T12:44:33;102291.81;;;12.02;67.56
42725;BME280;28369;44.046;23.014;2023-02-28T12:50:10;102171.50;;;11.59;67.25
42725;BME280;28369;44.046;23.014;2023-02-28T12:55:42;102291.09;;;12.40;66.20
42725;BME280;28369;44.046;23.014;2023-02-28T13:01:08;102162.81;;;11.30;68.13
42725;BME280;28369;44.046;23.014;2023-02-28T13:04:05;102286.63;;;12.27;65.98
42725;BME280;28369;44.046;23.014;2023-02-28T13:09:21;102112.25;;;10.96;66.55
42725;BME280;28369;44.046;23.014;2023-02-28T13:11:52;102274.50;;;11.98;66.16
42725;BME280;28369;44.046;23.014;2023-02-28T13:14:28;102303.09;;;12.31;65.85
42725;BME280;28369;44.046;23.014;2023-02-28T13:19:26;102186.25;;;11.76;65.46
42725;BME280;28369;44.046;23.014;2023-02-28T13:21:53;102263.75;;;12.28;65.71
42725;BME280;28369;44.046;23.014;2023-02-28T13:24:57;102288.88;;;12.74;65.11
42725;BME280;28369;44.046;23.014;2023-02-28T13:27:40;102147.19;;;11.68;64.89
42725;BME280;28369;44.046;23.014;2023-02-28T13:35:46;102253.00;;;12.04;65.58
42725;BME280;28369;44.046;23.014;2023-02-28T13:38:21;102260.34;;;11.84;66.03
42725;BME280;28369;44.046;23.014;2023-02-28T13:40:47;102226.19;;;11.83;65.55
42725;BME280;28369;44.046;23.014;2023-02-28T13:43:16;102227.44;;;11.77;65.81
42725;BME280;28369;44.046;23.014;2023-02-28T13:46:06;102272.59;;;12.00;65.87
42725;BME280;28369;44.046;23.014;2023-02-28T13:48:33;102255.16;;;12.24;64.75
42725;BME280;28369;44.046;23.014;2023-02-28T13:50:58;102225.59;;;11.65;65.87
42725;BME280;28369;44.046;23.014;2023-02-28T13:53:46;102229.16;;;12.05;65.52
42725;BME280;28369;44.046;23.014;2023-02-28T13:56:49;102251.19;;;12.32;65.19
42725;BME280;28369;44.046;23.014;2023-02-28T13:59:32;102086.47;;;11.57;64.23
42725;BME280;28369;44.046;23.014;2023-02-28T14:05:02;102272.56;;;12.54;64.71
42725;BME280;28369;44.046;23.014;2023-02-28T14:10:30;102129.22;;;11.48;65.40
42725;BME280;28369;44.046;23.014;2023-02-28T14:15:38;102261.88;;;12.43;65.42
42725;BME280;28369;44.046;23.014;2023-02-28T14:20:53;102242.00;;;12.24;65.63
42725;BME280;28369;44.046;23.014;2023-02-28T14:23:36;102219.88;;;12.40;64.48
42725;BME280;28369;44.046;23.014;2023-02-28T14:31:18;102023.72;;;11.09;64.93
42725;BME280;28369;44.046;23.014;2023-02-28T14:36:37;102241.34;;;12.21;66.08
42725;BME280;28369;44.046;23.014;2023-02-28T14:39:12;102214.47;;;11.74;66.24
42725;BME280;28369;44.046;23.014;2023-02-28T14:41:41;102209.66;;;11.81;66.17
42725;BME280;28369;44.046;23.014;2023-02-28T14:44:15;102238.72;;;11.79;66.38
42725;BME280;28369;44.046;23.014;2023-02-28T14:46:42;102080.31;;;11.02;66.51
42725;BME280;28369;44.046;23.014;2023-02-28T14:51:42;102243.53;;;12.14;65.61
42725;BME280;28369;44.046;23.014;2023-02-28T14:54:14;102257.38;;;12.18;66.02
42725;BME280;28369;44.046;23.014;2023-02-28T14:56:41;102217.38;;;11.69;67.21
42725;BME280;28369;44.046;23.014;2023-02-28T15:02:22;102203.09;;;11.73;66.58
42725;BME280;28369;44.046;23.014;2023-02-28T15:04:56;102239.13;;;12.15;65.82
42725;BME280;28369;44.046;23.014;2023-02-28T15:07:22;101987.75;;;10.53;65.76